sensor_id;sensor_type;location;lat;lon;timestamp;pressure;altitude;pressure_sealevel;temperature;humidity
75401;BME280;63974;47.538;18.972;2023-07-30T00:02:33;99850.19;;;20.63;82.74
75401;BME280;63974;47.538;18.972;2023-07-30T00:05:35;99849.41;;;20.63;82.76
75401;BME280;63974;47.538;18.972;2023-07-30T00:08:38;99832.63;;;20.52;83.03
75401;BME280;63974;47.538;18.972;2023-07-30T00:11:41;99842.38;;;20.52;83.74
75401;BME280;63974;47.538;18.972;2023-07-30T00:14:44;99841.03;;;20.49;83.64
75401;BME280;63974;47.538;18.972;2023-07-30T00:17:47;99832.72;;;20.41;83.68
75401;BME280;63974;47.538;18.972;2023-07-30T00:20:49;99843.34;;;20.46;82.86
75401;BME280;63974;47.538;18.972;2023-07-30T00:23:52;99847.84;;;20.46;83.09
75401;BME280;63974;47.538;18.972;2023-07-30T00:26:55;99817.88;;;20.19;83.19
75401;BME280;63974;47.538;18.972;2023-07-30T00:29:58;99847.59;;;20.31;84.08
75401;BME280;63974;47.538;18.972;2023-07-30T00:33:00;99852.81;;;20.26;84.14
75401;BME280;63974;47.538;18.972;2023-07-30T00:36:03;99845.56;;;20.16;84.17
75401;BME280;63974;47.538;18.972;2023-07-30T00:39:06;99855.63;;;20.19;84.57
75401;BME280;63974;47.538;18.972;2023-07-30T00:42:09;99807.59;;;19.84;84.87
75401;BME280;63974;47.538;18.972;2023-07-30T00:45:12;99782.44;;;19.77;84.63
75401;BME280;63974;47.538;18.972;2023-07-30T00:48:15;99836.25;;;19.97;85.05
75401;BME280;63974;47.538;18.972;2023-07-30T00:51:19;99833.72;;;20.02;84.75
75401;BME280;63974;47.538;18.972;2023-07-30T00:54:22;99835.00;;;20.00;84.96
75401;BME280;63974;47.538;18.972;2023-07-30T00:57:26;99832.34;;;20.00;85.25
75401;BME280;63974;47.538;18.972;2023-07-30T01:00:30;99818.94;;;19.85;85.59
75401;BME280;63974;47.538;18.972;2023-07-30T01:03:33;99830.81;;;19.87;85.49
75401;BME280;63974;47.538;18.972;2023-07-30T01:06:37;99824.59;;;19.93;85.40
75401;BME280;63974;47.538;18.972;2023-07-30T01:09:40;99819.34;;;19.93;85.25
75401;BME280;63974;47.538;18.972;2023-07-30T01:12:43;99802.66;;;19.88;84.94
75401;BME280;63974;47.538;18.972;2023-07-30T01:15:47;99808.88;;;19.65;85.88
75401;BME280;63974;47.538;18.972;2023-07-30T01:18:49;99803.19;;;19.57;85.99
75401;BME280;63974;47.538;18.972;2023-07-30T01:21:52;99809.78;;;19.43;86.73
75401;BME280;63974;47.538;18.972;2023-07-30T01:24:55;99812.63;;;19.25;87.50
75401;BME280;63974;47.538;18.972;2023-07-30T01:28:00;99814.38;;;19.19;88.02
75401;BME280;63974;47.538;18.972;2023-07-30T01:31:05;99805.50;;;19.37;86.94
75401;BME280;63974;47.538;18.972;2023-07-30T01:34:09;99813.66;;;19.52;86.75
75401;BME280;63974;47.538;18.972;2023-07-30T01:37:14;99800.09;;;19.04;87.75
75401;BME280;63974;47.538;18.972;2023-07-30T01:40:19;99799.91;;;18.94;89.54
75401;BME280;63974;47.538;18.972;2023-07-30T01:43:22;99801.97;;;18.92;90.71
75401;BME280;63974;47.538;18.972;2023-07-30T01:46:25;99818.66;;;18.97;91.30
75401;BME280;63974;47.538;18.972;2023-07-30T01:49:28;99822.47;;;18.90;91.36
75401;BME280;63974;47.538;18.972;2023-07-30T01:52:31;99848.78;;;18.78;91.60
75401;BME280;63974;47.538;18.972;2023-07-30T01:55:33;99850.22;;;18.35;91.77
75401;BME280;63974;47.538;18.972;2023-07-30T01:58:36;99856.03;;;18.48;92.58
75401;BME280;63974;47.538;18.972;2023-07-30T02:01:41;99835.75;;;18.72;92.05
75401;BME280;63974;47.538;18.972;2023-07-30T02:04:44;99816.03;;;18.97;90.43
75401;BME280;63974;47.538;18.972;2023-07-30T02:07:47;99826.78;;;19.35;89.15
75401;BME280;63974;47.538;18.972;2023-07-30T02:10:59;99839.75;;;19.70;87.40
75401;BME280;63974;47.538;18.972;2023-07-30T02:14:02;99832.53;;;19.32;88.37
75401;BME280;63974;47.538;18.972;2023-07-30T02:17:05;99837.00;;;19.48;88.08
75401;BME280;63974;47.538;18.972;2023-07-30T02:20:08;99834.06;;;19.61;86.80
75401;BME280;63974;47.538;18.972;2023-07-30T02:23:11;99843.41;;;19.69;86.17
75401;BME280;63974;47.538;18.972;2023-07-30T02:26:14;99852.53;;;19.78;85.51
75401;BME280;63974;47.538;18.972;2023-07-30T02:29:17;99851.84;;;19.82;85.09
75401;BME280;63974;47.538;18.972;2023-07-30T02:32:20;99830.25;;;19.85;84.99
75401;BME280;63974;47.538;18.972;2023-07-30T02:35:22;99837.28;;;19.96;84.95
75401;BME280;63974;47.538;18.972;2023-07-30T02:38:25;99840.91;;;20.07;84.73
75401;BME280;63974;47.538;18.972;2023-07-30T02:41:28;99830.50;;;20.00;84.72
75401;BME280;63974;47.538;18.972;2023-07-30T02:44:31;99849.84;;;20.06;84.45
75401;BME280;63974;47.538;18.972;2023-07-30T02:47:34;99843.13;;;19.98;84.44
75401;BME280;63974;47.538;18.972;2023-07-30T02:50:37;99824.44;;;19.83;84.59
75401;BME280;63974;47.538;18.972;2023-07-30T02:53:39;99825.16;;;19.95;84.43
75401;BME280;63974;47.538;18.972;2023-07-30T02:56:43;99833.09;;;20.12;84.14
75401;BME280;63974;47.538;18.972;2023-07-30T02:59:45;99829.47;;;20.18;83.56
75401;BME280;63974;47.538;18.972;2023-07-30T03:02:48;99829.06;;;20.26;83.54
75401;BME280;63974;47.538;18.972;2023-07-30T03:05:51;99834.25;;;20.37;83.54
75401;BME280;63974;47.538;18.972;2023-07-30T03:08:54;99833.22;;;20.38;83.74
75401;BME280;63974;47.538;18.972;2023-07-30T03:11:57;99830.28;;;20.35;83.97
75401;BME280;63974;47.538;18.972;2023-07-30T03:14:59;99841.41;;;20.58;83.44
75401;BME280;63974;47.538;18.972;2023-07-30T03:18:02;99843.31;;;20.62;82.83
75401;BME280;63974;47.538;18.972;2023-07-30T03:21:05;99834.34;;;20.42;83.13
75401;BME280;63974;47.538;18.972;2023-07-30T03:24:08;99837.28;;;20.46;83.40
75401;BME280;63974;47.538;18.972;2023-07-30T03:27:11;99827.69;;;20.40;83.21
75401;BME280;63974;47.538;18.972;2023-07-30T03:30:13;99840.97;;;20.45;83.08
75401;BME280;63974;47.538;18.972;2023-07-30T03:33:16;99829.22;;;20.36;83.48
75401;BME280;63974;47.538;18.972;2023-07-30T03:36:19;99828.41;;;20.35;83.69
75401;BME280;63974;47.538;18.972;2023-07-30T03:39:22;99833.78;;;20.40;83.53
75401;BME280;63974;47.538;18.972;2023-07-30T03:42:25;99821.72;;;20.28;83.76
75401;BME280;63974;47.538;18.972;2023-07-30T03:45:27;99819.56;;;20.25;83.57
75401;BME280;63974;47.538;18.972;2023-07-30T03:48:30;99826.59;;;20.36;83.55
75401;BME280;63974;47.538;18.972;2023-07-30T03:51:33;99834.22;;;20.53;83.32
75401;BME280;63974;47.538;18.972;2023-07-30T03:54:36;99831.97;;;20.62;83.10
75401;BME280;63974;47.538;18.972;2023-07-30T03:57:39;99835.28;;;20.74;82.75
75401;BME280;63974;47.538;18.972;2023-07-30T04:00:42;99831.47;;;20.65;82.78
75401;BME280;63974;47.538;18.972;2023-07-30T04:03:45;99830.13;;;20.62;83.08
75401;BME280;63974;47.538;18.972;2023-07-30T04:06:48;99801.00;;;20.36;83.08
75401;BME280;63974;47.538;18.972;2023-07-30T04:09:51;99835.28;;;20.74;82.82
75401;BME280;63974;47.538;18.972;2023-07-30T04:12:54;99815.38;;;20.66;82.54
75401;BME280;63974;47.538;18.972;2023-07-30T04:15:56;99826.63;;;20.78;82.33
75401;BME280;63974;47.538;18.972;2023-07-30T04:18:59;99819.88;;;20.66;82.60
75401;BME280;63974;47.538;18.972;2023-07-30T04:22:02;99826.47;;;20.85;81.92
75401;BME280;63974;47.538;18.972;2023-07-30T04:25:05;99828.19;;;20.96;81.83
75401;BME280;63974;47.538;18.972;2023-07-30T04:28:09;99794.41;;;20.76;81.55
75401;BME280;63974;47.538;18.972;2023-07-30T04:31:12;99835.53;;;21.15;81.43
75401;BME280;63974;47.538;18.972;2023-07-30T04:34:15;99811.72;;;21.10;80.55
75401;BME280;63974;47.538;18.972;2023-07-30T04:37:18;99815.31;;;21.26;80.65
75401;BME280;63974;47.538;18.972;2023-07-30T04:40:21;99825.47;;;21.39;80.34
75401;BME280;63974;47.538;18.972;2023-07-30T04:43:23;99836.38;;;21.47;80.22
75401;BME280;63974;47.538;18.972;2023-07-30T04:46:31;99833.25;;;21.50;80.47
75401;BME280;63974;47.538;18.972;2023-07-30T04:49:36;99826.78;;;21.63;80.11
75401;BME280;63974;47.538;18.972;2023-07-30T04:52:42;99808.09;;;21.69;79.69
75401;BME280;63974;47.538;18.972;2023-07-30T04:55:45;99810.13;;;21.94;78.78
75401;BME280;63974;47.538;18.972;2023-07-30T04:58:48;99815.19;;;22.00;78.66
75401;BME280;63974;47.538;18.972;2023-07-30T05:01:51;99826.59;;;22.06;78.68
75401;BME280;63974;47.538;18.972;2023-07-30T05:04:54;99822.91;;;22.07;79.48
75401;BME280;63974;47.538;18.972;2023-07-30T05:07:57;99823.94;;;22.06;79.39
75401;BME280;63974;47.538;18.972;2023-07-30T05:11:00;99788.31;;;21.77;79.71
75401;BME280;63974;47.538;18.972;2023-07-30T05:14:02;99822.25;;;21.90;79.94
75401;BME280;63974;47.538;18.972;2023-07-30T05:17:05;99805.69;;;21.68;80.45
75401;BME280;63974;47.538;18.972;2023-07-30T05:20:08;99832.50;;;21.81;80.60
75401;BME280;63974;47.538;18.972;2023-07-30T05:23:12;99825.88;;;21.79;80.45
75401;BME280;63974;47.538;18.972;2023-07-30T05:26:15;99814.06;;;21.60;79.52
75401;BME280;63974;47.538;18.972;2023-07-30T05:29:18;99828.28;;;21.59;79.99
75401;BME280;63974;47.538;18.972;2023-07-30T05:32:20;99828.31;;;21.85;79.73
75401;BME280;63974;47.538;18.972;2023-07-30T05:35:23;99839.25;;;21.99;78.67
75401;BME280;63974;47.538;18.972;2023-07-30T05:38:27;99841.16;;;22.03;78.48
75401;BME280;63974;47.538;18.972;2023-07-30T05:41:30;99835.34;;;22.06;77.93
75401;BME280;63974;47.538;18.972;2023-07-30T05:44:32;99841.47;;;22.12;77.67
75401;BME280;63974;47.538;18.972;2023-07-30T05:47:35;99806.06;;;21.81;77.80
75401;BME280;63974;47.538;18.972;2023-07-30T05:50:38;99841.06;;;21.93;78.90
75401;BME280;63974;47.538;18.972;2023-07-30T05:53:41;99828.97;;;22.02;78.95
75401;BME280;63974;47.538;18.972;2023-07-30T05:56:43;99823.72;;;22.07;78.18
75401;BME280;63974;47.538;18.972;2023-07-30T05:59:46;99839.72;;;22.27;78.11
75401;BME280;63974;47.538;18.972;2023-07-30T06:02:49;99822.53;;;22.30;77.62
75401;BME280;63974;47.538;18.972;2023-07-30T06:05:52;99828.75;;;22.50;76.68
75401;BME280;63974;47.538;18.972;2023-07-30T06:08:55;99842.44;;;22.88;75.60
75401;BME280;63974;47.538;18.972;2023-07-30T06:11:58;99839.84;;;22.98;74.31
75401;BME280;63974;47.538;18.972;2023-07-30T06:15:00;99830.59;;;23.01;74.50
75401;BME280;63974;47.538;18.972;2023-07-30T06:18:03;99817.66;;;23.14;73.39
75401;BME280;63974;47.538;18.972;2023-07-30T06:21:06;99824.34;;;23.42;71.37
75401;BME280;63974;47.538;18.972;2023-07-30T06:24:09;99822.00;;;23.55;72.77
75401;BME280;63974;47.538;18.972;2023-07-30T06:27:12;99824.91;;;23.69;72.01
75401;BME280;63974;47.538;18.972;2023-07-30T06:30:15;99825.47;;;23.91;69.31
75401;BME280;63974;47.538;18.972;2023-07-30T06:33:17;99844.00;;;24.06;70.08
75401;BME280;63974;47.538;18.972;2023-07-30T06:36:20;99826.53;;;24.00;67.02
75401;BME280;63974;47.538;18.972;2023-07-30T06:39:23;99844.56;;;24.13;66.91
75401;BME280;63974;47.538;18.972;2023-07-30T06:42:26;99855.66;;;24.30;68.08
75401;BME280;63974;47.538;18.972;2023-07-30T06:45:29;99856.97;;;24.52;66.24
75401;BME280;63974;47.538;18.972;2023-07-30T06:48:31;99862.94;;;24.93;65.13
75401;BME280;63974;47.538;18.972;2023-07-30T06:51:34;99863.31;;;25.35;63.67
75401;BME280;63974;47.538;18.972;2023-07-30T06:54:38;99862.44;;;25.82;61.87
75401;BME280;63974;47.538;18.972;2023-07-30T06:57:41;99843.34;;;26.09;60.60
75401;BME280;63974;47.538;18.972;2023-07-30T07:00:44;99848.81;;;26.22;60.09
75401;BME280;63974;47.538;18.972;2023-07-30T07:03:47;99839.63;;;26.10;60.71
75401;BME280;63974;47.538;18.972;2023-07-30T07:06:50;99843.34;;;26.37;59.67
75401;BME280;63974;47.538;18.972;2023-07-30T07:09:53;99819.25;;;26.52;58.97
75401;BME280;63974;47.538;18.972;2023-07-30T07:12:56;99839.34;;;26.87;58.85
75401;BME280;63974;47.538;18.972;2023-07-30T07:15:58;99827.03;;;26.91;57.27
75401;BME280;63974;47.538;18.972;2023-07-30T07:19:01;99827.13;;;27.04;56.93
75401;BME280;63974;47.538;18.972;2023-07-30T07:22:05;99818.38;;;27.22;56.80
75401;BME280;63974;47.538;18.972;2023-07-30T07:25:08;99827.16;;;27.41;55.95
75401;BME280;63974;47.538;18.972;2023-07-30T07:28:11;99841.69;;;27.67;55.34
75401;BME280;63974;47.538;18.972;2023-07-30T07:31:14;99846.84;;;27.45;56.90
75401;BME280;63974;47.538;18.972;2023-07-30T07:34:16;99834.09;;;27.42;56.15
75401;BME280;63974;47.538;18.972;2023-07-30T07:37:19;99794.16;;;27.37;54.67
75401;BME280;63974;47.538;18.972;2023-07-30T07:40:22;99837.66;;;27.88;54.39
75401;BME280;63974;47.538;18.972;2023-07-30T07:43:26;99832.09;;;28.16;52.78
75401;BME280;63974;47.538;18.972;2023-07-30T07:46:29;99817.56;;;28.22;52.64
75401;BME280;63974;47.538;18.972;2023-07-30T07:49:31;99838.59;;;28.42;53.25
75401;BME280;63974;47.538;18.972;2023-07-30T07:52:34;99834.53;;;28.58;51.31
75401;BME280;63974;47.538;18.972;2023-07-30T07:55:37;99827.41;;;28.67;51.71
75401;BME280;63974;47.538;18.972;2023-07-30T07:58:40;99822.06;;;28.67;50.42
75401;BME280;63974;47.538;18.972;2023-07-30T08:01:45;99831.75;;;29.04;49.88
75401;BME280;63974;47.538;18.972;2023-07-30T08:04:48;99822.13;;;29.16;50.33
75401;BME280;63974;47.538;18.972;2023-07-30T08:07:51;99805.31;;;29.38;49.34
75401;BME280;63974;47.538;18.972;2023-07-30T08:10:54;99806.63;;;29.62;48.44
75401;BME280;63974;47.538;18.972;2023-07-30T08:13:56;99795.88;;;29.84;48.02
75401;BME280;63974;47.538;18.972;2023-07-30T08:16:59;99810.94;;;29.50;49.19
75401;BME280;63974;47.538;18.972;2023-07-30T08:20:02;99766.97;;;29.29;49.80
75401;BME280;63974;47.538;18.972;2023-07-30T08:23:06;99795.59;;;29.64;48.34
75401;BME280;63974;47.538;18.972;2023-07-30T08:26:09;99798.66;;;29.71;48.28
75401;BME280;63974;47.538;18.972;2023-07-30T08:29:12;99793.69;;;29.86;48.57
75401;BME280;63974;47.538;18.972;2023-07-30T08:32:16;99794.91;;;30.02;47.26
75401;BME280;63974;47.538;18.972;2023-07-30T08:35:19;99782.81;;;30.43;47.42
75401;BME280;63974;47.538;18.972;2023-07-30T08:38:21;99773.00;;;30.39;47.05
75401;BME280;63974;47.538;18.972;2023-07-30T08:41:24;99785.69;;;30.55;45.98
75401;BME280;63974;47.538;18.972;2023-07-30T08:44:27;99774.44;;;30.06;46.34
75401;BME280;63974;47.538;18.972;2023-07-30T08:47:30;99780.88;;;29.75;47.59
75401;BME280;63974;47.538;18.972;2023-07-30T08:50:33;99798.69;;;28.73;48.48
75401;BME280;63974;47.538;18.972;2023-07-30T08:53:37;99779.88;;;28.10;50.19
75401;BME280;63974;47.538;18.972;2023-07-30T08:56:41;99802.22;;;28.14;51.70
75401;BME280;63974;47.538;18.972;2023-07-30T08:59:50;99804.91;;;28.28;51.56
75401;BME280;63974;47.538;18.972;2023-07-30T09:02:59;99802.56;;;28.40;52.58
75401;BME280;63974;47.538;18.972;2023-07-30T09:06:02;99794.31;;;27.78;52.55
75401;BME280;63974;47.538;18.972;2023-07-30T09:09:06;99793.34;;;27.55;52.75
75401;BME280;63974;47.538;18.972;2023-07-30T09:12:15;99786.63;;;27.89;48.62
75401;BME280;63974;47.538;18.972;2023-07-30T09:15:18;99788.88;;;27.51;47.74
75401;BME280;63974;47.538;18.972;2023-07-30T09:18:21;99782.03;;;27.08;47.79
75401;BME280;63974;47.538;18.972;2023-07-30T09:21:31;99800.88;;;27.16;48.44
75401;BME280;63974;47.538;18.972;2023-07-30T09:24:34;99791.03;;;26.93;49.82
75401;BME280;63974;47.538;18.972;2023-07-30T09:27:37;99809.84;;;26.60;49.56
75401;BME280;63974;47.538;18.972;2023-07-30T09:30:40;99808.81;;;26.27;49.74
75401;BME280;63974;47.538;18.972;2023-07-30T09:33:43;99795.31;;;25.95;50.33
75401;BME280;63974;47.538;18.972;2023-07-30T09:36:46;99772.34;;;25.76;51.46
75401;BME280;63974;47.538;18.972;2023-07-30T09:39:52;99779.59;;;25.65;52.86
75401;BME280;63974;47.538;18.972;2023-07-30T09:42:57;99810.53;;;25.56;55.66
75401;BME280;63974;47.538;18.972;2023-07-30T09:46:04;99823.75;;;25.23;56.21
75401;BME280;63974;47.538;18.972;2023-07-30T09:49:08;99824.59;;;24.55;58.95
75401;BME280;63974;47.538;18.972;2023-07-30T09:52:11;99846.41;;;24.02;61.30
75401;BME280;63974;47.538;18.972;2023-07-30T09:55:16;99886.28;;;22.65;71.79
75401;BME280;63974;47.538;18.972;2023-07-30T09:58:21;99879.94;;;21.18;82.84
75401;BME280;63974;47.538;18.972;2023-07-30T10:01:25;99896.69;;;20.15;92.82
75401;BME280;63974;47.538;18.972;2023-07-30T10:04:30;99938.97;;;19.92;99.39
75401;BME280;63974;47.538;18.972;2023-07-30T10:07:34;99934.56;;;19.81;100.00
75401;BME280;63974;47.538;18.972;2023-07-30T10:10:38;99922.44;;;19.97;99.45
75401;BME280;63974;47.538;18.972;2023-07-30T10:13:41;99955.41;;;20.44;96.09
75401;BME280;63974;47.538;18.972;2023-07-30T10:16:54;99959.94;;;20.48;96.61
75401;BME280;63974;47.538;18.972;2023-07-30T10:20:19;99948.78;;;20.57;97.74
75401;BME280;63974;47.538;18.972;2023-07-30T10:23:27;99949.31;;;20.76;98.93
75401;BME280;63974;47.538;18.972;2023-07-30T10:26:32;99929.31;;;20.80;97.87
75401;BME280;63974;47.538;18.972;2023-07-30T10:29:36;99909.97;;;20.74;97.22
75401;BME280;63974;47.538;18.972;2023-07-30T10:32:43;99919.28;;;20.82;97.90
75401;BME280;63974;47.538;18.972;2023-07-30T10:36:00;99903.47;;;20.82;98.92
75401;BME280;63974;47.538;18.972;2023-07-30T10:39:21;99914.91;;;21.09;96.95
75401;BME280;63974;47.538;18.972;2023-07-30T10:42:36;99905.06;;;20.83;95.56
75401;BME280;63974;47.538;18.972;2023-07-30T10:45:48;99912.91;;;20.78;96.64
75401;BME280;63974;47.538;18.972;2023-07-30T10:48:51;99907.03;;;20.54;97.89
75401;BME280;63974;47.538;18.972;2023-07-30T10:51:56;99913.50;;;20.47;99.60
75401;BME280;63974;47.538;18.972;2023-07-30T10:55:02;99910.31;;;20.29;97.29
75401;BME280;63974;47.538;18.972;2023-07-30T10:58:06;99898.34;;;20.21;99.11
75401;BME280;63974;47.538;18.972;2023-07-30T11:01:09;99896.03;;;20.08;97.77
75401;BME280;63974;47.538;18.972;2023-07-30T11:04:14;99908.66;;;20.06;98.83
75401;BME280;63974;47.538;18.972;2023-07-30T11:07:17;99893.19;;;20.26;99.87
75401;BME280;63974;47.538;18.972;2023-07-30T11:10:21;99901.88;;;20.27;99.82
75401;BME280;63974;47.538;18.972;2023-07-30T11:13:24;99906.50;;;20.03;98.89
75401;BME280;63974;47.538;18.972;2023-07-30T11:16:27;99933.13;;;19.90;99.00
75401;BME280;63974;47.538;18.972;2023-07-30T11:19:30;99930.66;;;19.84;99.38
75401;BME280;63974;47.538;18.972;2023-07-30T11:22:35;99952.56;;;20.01;99.29
75401;BME280;63974;47.538;18.972;2023-07-30T11:25:38;99946.19;;;20.13;100.00
75401;BME280;63974;47.538;18.972;2023-07-30T11:28:41;99951.75;;;20.28;100.00
75401;BME280;63974;47.538;18.972;2023-07-30T11:31:44;99959.41;;;20.46;98.94
75401;BME280;63974;47.538;18.972;2023-07-30T11:34:47;99945.91;;;20.26;92.64
75401;BME280;63974;47.538;18.972;2023-07-30T11:37:50;99937.06;;;20.70;95.33
75401;BME280;63974;47.538;18.972;2023-07-30T11:40:53;99923.69;;;20.93;94.29
75401;BME280;63974;47.538;18.972;2023-07-30T11:43:57;99895.44;;;21.36;91.76
75401;BME280;63974;47.538;18.972;2023-07-30T11:46:59;99882.75;;;21.60;89.23
75401;BME280;63974;47.538;18.972;2023-07-30T11:50:02;99884.47;;;21.71;90.77
75401;BME280;63974;47.538;18.972;2023-07-30T11:53:05;99852.84;;;21.81;90.18
75401;BME280;63974;47.538;18.972;2023-07-30T11:56:24;99836.59;;;21.41;90.55
75401;BME280;63974;47.538;18.972;2023-07-30T11:59:31;99835.41;;;21.53;92.36
75401;BME280;63974;47.538;18.972;2023-07-30T12:02:33;99788.13;;;21.57;91.61
75401;BME280;63974;47.538;18.972;2023-07-30T12:05:38;99820.81;;;21.77;90.24
75401;BME280;63974;47.538;18.972;2023-07-30T12:08:41;99834.22;;;21.97;89.05
75401;BME280;63974;47.538;18.972;2023-07-30T12:17:54;99829.47;;;21.41;91.51
75401;BME280;63974;47.538;18.972;2023-07-30T12:20:57;99845.88;;;21.22;90.38
75401;BME280;63974;47.538;18.972;2023-07-30T12:24:00;99855.06;;;21.14;91.18
75401;BME280;63974;47.538;18.972;2023-07-30T12:27:03;99851.00;;;21.55;92.15
75401;BME280;63974;47.538;18.972;2023-07-30T12:30:06;99861.78;;;21.75;89.85
75401;BME280;63974;47.538;18.972;2023-07-30T12:33:09;99853.44;;;22.24;85.79
75401;BME280;63974;47.538;18.972;2023-07-30T12:36:12;99852.38;;;22.20;85.28
75401;BME280;63974;47.538;18.972;2023-07-30T12:39:15;99851.81;;;22.18;86.47
75401;BME280;63974;47.538;18.972;2023-07-30T12:42:18;99832.72;;;22.11;85.34
75401;BME280;63974;47.538;18.972;2023-07-30T12:45:20;99846.03;;;22.21;84.58
75401;BME280;63974;47.538;18.972;2023-07-30T12:48:23;99843.75;;;22.35;84.10
75401;BME280;63974;47.538;18.972;2023-07-30T12:51:26;99835.19;;;22.23;85.75
75401;BME280;63974;47.538;18.972;2023-07-30T12:54:30;99814.84;;;21.87;85.27
75401;BME280;63974;47.538;18.972;2023-07-30T12:57:33;99810.03;;;22.62;80.21
75401;BME280;63974;47.538;18.972;2023-07-30T13:00:37;99819.41;;;22.33;79.70
75401;BME280;63974;47.538;18.972;2023-07-30T13:03:40;99802.94;;;22.31;82.33
75401;BME280;63974;47.538;18.972;2023-07-30T13:06:47;99810.13;;;22.82;79.33
75401;BME280;63974;47.538;18.972;2023-07-30T13:10:05;99814.81;;;23.41;77.59
75401;BME280;63974;47.538;18.972;2023-07-30T13:13:08;99815.09;;;23.54;78.76
75401;BME280;63974;47.538;18.972;2023-07-30T13:16:11;99810.06;;;23.68;76.83
75401;BME280;63974;47.538;18.972;2023-07-30T13:19:14;99801.03;;;23.59;75.02
75401;BME280;63974;47.538;18.972;2023-07-30T13:22:16;99807.38;;;23.28;78.72
75401;BME280;63974;47.538;18.972;2023-07-30T13:25:19;99819.56;;;23.39;77.46
75401;BME280;63974;47.538;18.972;2023-07-30T13:28:22;99799.72;;;23.96;77.69
75401;BME280;63974;47.538;18.972;2023-07-30T13:31:25;99814.31;;;24.14;75.00
75401;BME280;63974;47.538;18.972;2023-07-30T13:34:28;99816.94;;;24.14;72.17
75401;BME280;63974;47.538;18.972;2023-07-30T13:37:31;99822.34;;;24.82;69.02
75401;BME280;63974;47.538;18.972;2023-07-30T13:40:34;99832.16;;;24.87;72.08
75401;BME280;63974;47.538;18.972;2023-07-30T13:43:36;99804.91;;;24.61;73.93
75401;BME280;63974;47.538;18.972;2023-07-30T13:46:39;99800.41;;;25.20;68.70
75401;BME280;63974;47.538;18.972;2023-07-30T13:49:43;99793.63;;;25.71;66.96
75401;BME280;63974;47.538;18.972;2023-07-30T13:52:45;99805.16;;;25.61;65.00
75401;BME280;63974;47.538;18.972;2023-07-30T13:55:49;99789.75;;;25.92;65.10
75401;BME280;63974;47.538;18.972;2023-07-30T13:58:52;99794.13;;;25.78;64.15
75401;BME280;63974;47.538;18.972;2023-07-30T14:01:54;99792.06;;;26.27;63.04
75401;BME280;63974;47.538;18.972;2023-07-30T14:04:57;99777.91;;;26.78;60.82
75401;BME280;63974;47.538;18.972;2023-07-30T14:08:00;99773.38;;;25.46;66.17
75401;BME280;63974;47.538;18.972;2023-07-30T14:11:03;99793.28;;;24.37;69.76
75401;BME280;63974;47.538;18.972;2023-07-30T14:14:06;99773.44;;;25.37;68.03
75401;BME280;63974;47.538;18.972;2023-07-30T14:17:09;99790.16;;;24.94;66.48
75401;BME280;63974;47.538;18.972;2023-07-30T14:20:12;99779.34;;;26.24;64.47
75401;BME280;63974;47.538;18.972;2023-07-30T14:23:14;99785.50;;;24.71;67.72
75401;BME280;63974;47.538;18.972;2023-07-30T14:26:17;99784.91;;;25.65;64.96
75401;BME280;63974;47.538;18.972;2023-07-30T14:29:20;99798.03;;;24.55;68.47
75401;BME280;63974;47.538;18.972;2023-07-30T14:32:23;99774.41;;;25.50;65.56
75401;BME280;63974;47.538;18.972;2023-07-30T14:35:26;99796.47;;;25.03;67.71
75401;BME280;63974;47.538;18.972;2023-07-30T14:38:29;99787.09;;;26.20;62.93
75401;BME280;63974;47.538;18.972;2023-07-30T14:41:33;99769.22;;;27.10;58.23
75401;BME280;63974;47.538;18.972;2023-07-30T14:44:36;99771.66;;;26.88;59.63
75401;BME280;63974;47.538;18.972;2023-07-30T14:47:39;99774.50;;;27.65;59.70
75401;BME280;63974;47.538;18.972;2023-07-30T14:50:42;99766.47;;;27.84;56.29
75401;BME280;63974;47.538;18.972;2023-07-30T14:53:45;99774.56;;;27.60;56.36
75401;BME280;63974;47.538;18.972;2023-07-30T14:56:48;99772.81;;;27.19;57.84
75401;BME280;63974;47.538;18.972;2023-07-30T14:59:50;99767.47;;;25.88;61.33
75401;BME280;63974;47.538;18.972;2023-07-30T15:02:55;99763.84;;;25.40;60.87
75401;BME280;63974;47.538;18.972;2023-07-30T15:05:58;99770.56;;;24.85;64.22
75401;BME280;63974;47.538;18.972;2023-07-30T15:09:01;99771.84;;;24.92;63.65
75401;BME280;63974;47.538;18.972;2023-07-30T15:12:05;99746.25;;;26.06;61.68
75401;BME280;63974;47.538;18.972;2023-07-30T15:15:10;99760.88;;;26.32;60.13
75401;BME280;63974;47.538;18.972;2023-07-30T15:18:13;99755.41;;;26.19;58.79
75401;BME280;63974;47.538;18.972;2023-07-30T15:21:16;99748.81;;;26.16;58.58
75401;BME280;63974;47.538;18.972;2023-07-30T15:24:18;99760.84;;;25.47;61.36
75401;BME280;63974;47.538;18.972;2023-07-30T15:27:21;99763.16;;;25.92;59.45
75401;BME280;63974;47.538;18.972;2023-07-30T15:30:24;99767.63;;;25.30;61.70
75401;BME280;63974;47.538;18.972;2023-07-30T15:33:27;99757.09;;;25.86;60.84
75401;BME280;63974;47.538;18.972;2023-07-30T15:36:29;99747.19;;;26.62;55.78
75401;BME280;63974;47.538;18.972;2023-07-30T15:39:32;99743.28;;;27.34;54.00
75401;BME280;63974;47.538;18.972;2023-07-30T15:42:37;99743.41;;;27.42;53.99
75401;BME280;63974;47.538;18.972;2023-07-30T15:45:40;99738.94;;;27.70;54.77
75401;BME280;63974;47.538;18.972;2023-07-30T15:48:46;99739.63;;;28.34;51.58
75401;BME280;63974;47.538;18.972;2023-07-30T15:51:49;99747.59;;;27.30;56.05
75401;BME280;63974;47.538;18.972;2023-07-30T15:54:53;99727.63;;;26.30;59.53
75401;BME280;63974;47.538;18.972;2023-07-30T15:57:56;99723.00;;;27.51;57.29
75401;BME280;63974;47.538;18.972;2023-07-30T16:01:06;99743.47;;;27.56;54.62
75401;BME280;63974;47.538;18.972;2023-07-30T16:04:12;99747.75;;;27.38;58.13
75401;BME280;63974;47.538;18.972;2023-07-30T16:07:15;99732.22;;;28.17;55.70